Terminal Aerodrome Forecast
Issued by NWS

Home | Current Version | Previous Version | Graphics & Text | Print | Product List | Glossary On
Versions: 1 2 3 4 5 6 7 8 9 10 11 12 13 14 15 16 17 18 19 20 21 22
000
FTUS43 KBIS 220538
TAFMOT
TAF
KMOT 220538Z 2206/2306 31008KT P6SM -RASNPL BKN010 OVC045
      TEMPO 2206/2209 2SM BR BKN003
     FM220900 35010KT 2SM -SN BR OVC003
     FM221800 36015KT P6SM VCSH OVC010
     FM222000 36011KT P6SM OVC020
     FM230200 33005KT P6SM BKN025 BKN035=

USA.gov is the U.S. government's official web portal to all federal, state and local government web resources and services.